Terminal Aerodrome Forecast
Issued by NWS Bismarck, ND

Home | Current Version | Previous Version | Graphics & Text | Print | Product List | Glossary On
Versions: 1 2 3 4 5 6 7 8 9 10 11 12 13 14 15 16 17 18 19
000
FTUS43 KBIS 242332
TAFBIS
TAF
KBIS 242332Z 2500/2524 34014G22KT P6SM SCT060
     FM250200 34008KT P6SM FEW070
     FM251400 28008KT P6SM VCSH SCT050 BKN110
     FM251700 31012G21KT P6SM SCT070=

USA.gov is the U.S. government's official web portal to all federal, state and local government web resources and services.